SLOA4: Illinois River nr Siloam Springs AR

Data processed at Fri Dec 08 2017 23:18


All information presented herein is the property of the government of the United States of America and may be revised or deleted at any time without prior notice.
Dissemination of this information without the expressed written consent of the Public Affairs Office, Tulsa District U.S. Army Corps of Engineers is strictly prohibited.
These data are gathered electronically and, as presented, have not undergone any form of quality control. These data are not guaranteed to be valid or correct.
Go to home page.
Go to station list.

Upstream stations:

Downstream station:
Previous Day
Next Day
Current Day
    
SHEF ID:       SLOA4     Illinois River South of Siloam S
STATION TYPE:  

                STAGE  RIV-FLOW  BAT-LOAD
                   ft       cfs      volt
              Ccp-Rev   Ccp-Rev   Ccp-Rev
(US/Central)
12/06 00:00      2.53       196     12.24
12/06 01:00      2.52       193     12.24
12/06 02:00      2.51       190     12.24
12/06 03:00      2.50       188     12.24
12/06 04:00      2.50       188     12.19
12/06 05:00      2.50       188     12.19
12/06 06:00      2.52       193     12.13
12/06 07:00      2.52       193     12.13
12/06 08:00      2.51       190     12.07
12/06 09:00      2.52       193     12.65
12/06 10:00      2.53       196     13.83
12/06 11:00      2.54       199     14.24
12/06 12:00      2.53       196     14.30
12/06 13:00      2.55       202     14.24
12/06 14:00      2.56       205     14.18
12/06 15:00      2.55       202     14.12
12/06 16:00      2.56       205     14.00
12/06 17:00      2.54       199     13.83
12/06 18:00      2.52       193     13.12
12/06 19:00      2.52       193     12.60
12/06 20:00      2.50       188     12.36
12/06 21:00      2.51       190     12.36
12/06 22:00      2.50       188     12.36
12/06 23:00      2.50       188     12.30